Time,TemperatureF,DewpointF,PressureIn,WindDirection,WindDirectionDegrees,WindSpeedMPH,WindSpeedGustMPH,Humidity,HourlyPrecipIn,Conditions,Clouds,dailyrainin,SoftwareType,DateUTC
2013-06-13 00:04:00,67.3,54.0,29.74,SW,226,0.0,0.0,63,0.00,,,0.00,weatherlink.com 1.10,2013-06-13 04:04:00,
2013-06-13 00:19:00,67.8,54.0,29.74,SW,224,0.0,3.0,61,0.00,,,0.00,weatherlink.com 1.10,2013-06-13 04:19:00,
2013-06-13 00:34:00,67.1,56.0,29.73,SW,224,0.0,0.0,67,0.00,,,0.00,weatherlink.com 1.10,2013-06-13 04:34:00,
2013-06-13 00:49:00,66.4,55.0,29.73,West,276,0.0,1.0,68,0.00,,,0.00,weatherlink.com 1.10,2013-06-13 04:49:00,
2013-06-13 01:04:00,66.1,56.0,29.72,West,276,0.0,0.0,69,0.00,,,0.00,weatherlink.com 1.10,2013-06-13 05:04:00,
2013-06-13 01:19:00,65.0,57.0,29.71,West,270,0.0,0.0,74,0.00,,,0.00,weatherlink.com 1.10,2013-06-13 05:19:00,
2013-06-13 01:34:00,64.4,58.0,29.71,West,270,0.0,0.0,79,0.00,,,0.00,weatherlink.com 1.10,2013-06-13 05:34:00,
2013-06-13 01:49:00,63.5,58.0,29.70,SSW,201,0.0,0.0,81,0.00,,,0.00,weatherlink.com 1.10,2013-06-13 05:49:00,
2013-06-13 02:04:00,63.6,58.0,29.68,SSW,201,0.0,0.0,83,0.00,,,0.00,weatherlink.com 1.10,2013-06-13 06:04:00,
2013-06-13 02:19:00,63.5,59.0,29.67,NNE,33,4.0,4.0,84,0.00,,,0.00,weatherlink.com 1.10,2013-06-13 06:19:00,
2013-06-13 02:34:00,63.1,58.0,29.66,NE,50,0.0,1.0,84,0.00,,,0.00,weatherlink.com 1.10,2013-06-13 06:34:00,
2013-06-13 02:49:00,63.1,58.0,29.66,NE,45,0.0,0.0,82,0.00,,,0.00,weatherlink.com 1.10,2013-06-13 06:49:00,
2013-06-13 03:05:00,63.2,58.0,29.64,NNE,27,1.0,2.0,82,0.00,,,0.00,weatherlink.com 1.10,2013-06-13 07:05:00,
2013-06-13 03:19:00,63.4,58.0,29.64,North,1,0.0,0.0,82,0.00,,,0.00,weatherlink.com 1.10,2013-06-13 07:19:00,
2013-06-13 03:34:00,63.7,58.0,29.63,ENE,68,0.0,1.0,82,0.00,,,0.00,weatherlink.com 1.10,2013-06-13 07:34:00,
2013-06-13 03:50:00,63.8,58.0,29.62,NE,41,1.0,3.0,82,0.00,,,0.00,weatherlink.com 1.10,2013-06-13 07:50:00,
2013-06-13 04:05:00,63.9,59.0,29.60,ENE,62,0.0,2.0,83,0.00,,,0.00,weatherlink.com 1.10,2013-06-13 08:05:00,
2013-06-13 04:20:00,64.1,59.0,29.59,NE,34,2.0,2.0,83,0.00,,,0.00,weatherlink.com 1.10,2013-06-13 08:20:00,
2013-06-13 04:35:00,64.2,59.0,29.58,ENE,62,0.0,4.0,83,0.00,,,0.00,weatherlink.com 1.10,2013-06-13 08:35:00,
2013-06-13 04:50:00,64.3,59.0,29.57,ENE,71,1.0,3.0,83,0.00,,,0.00,weatherlink.com 1.10,2013-06-13 08:50:00,
2013-06-13 05:05:00,64.4,59.0,29.57,East,88,0.0,0.0,82,0.00,,,0.00,weatherlink.com 1.10,2013-06-13 09:05:00,
2013-06-13 05:20:00,64.4,59.0,29.56,ENE,74,1.0,4.0,83,0.01,,,0.01,weatherlink.com 1.10,2013-06-13 09:20:00,
2013-06-13 05:35:00,64.0,59.0,29.56,ESE,103,0.0,3.0,84,0.03,,,0.03,weatherlink.com 1.10,2013-06-13 09:35:00,
2013-06-13 05:50:00,63.6,59.0,29.56,East,88,0.0,2.0,86,0.04,,,0.04,weatherlink.com 1.10,2013-06-13 09:50:00,
2013-06-13 06:05:00,63.4,60.0,29.55,ENE,58,0.0,3.0,87,0.05,,,0.05,weatherlink.com 1.10,2013-06-13 10:05:00,
2013-06-13 06:20:00,63.3,60.0,29.55,NE,39,1.0,3.0,88,0.06,,,0.07,weatherlink.com 1.10,2013-06-13 10:20:00,
2013-06-13 06:35:00,63.1,60.0,29.55,East,89,1.0,4.0,88,0.06,,,0.09,weatherlink.com 1.10,2013-06-13 10:35:00,
2013-06-13 06:50:00,63.0,60.0,29.54,NNE,29,4.0,4.0,89,0.13,,,0.18,weatherlink.com 1.10,2013-06-13 10:50:00,
2013-06-13 07:05:00,62.9,60.0,29.53,NNE,18,1.0,4.0,89,0.22,,,0.27,weatherlink.com 1.10,2013-06-13 11:05:00,
2013-06-13 07:20:00,62.7,60.0,29.52,NNE,32,3.0,4.0,90,0.34,,,0.41,weatherlink.com 1.10,2013-06-13 11:20:00,
2013-06-13 07:35:00,62.6,60.0,29.52,NNE,27,4.0,6.0,90,0.42,,,0.51,weatherlink.com 1.10,2013-06-13 11:35:00,
2013-06-13 07:50:00,62.5,60.0,29.51,ENE,57,2.0,8.0,90,0.40,,,0.59,weatherlink.com 1.10,2013-06-13 11:50:00,
2013-06-13 08:05:00,62.4,60.0,29.51,NNW,343,4.0,7.0,91,0.38,,,0.67,weatherlink.com 1.10,2013-06-13 12:05:00,
2013-06-13 08:20:00,62.2,60.0,29.51,NNE,32,2.0,8.0,91,0.33,,,0.75,weatherlink.com 1.10,2013-06-13 12:20:00,
2013-06-13 08:35:00,62.0,59.0,29.51,NNE,13,6.0,8.0,91,0.30,,,0.81,weatherlink.com 1.10,2013-06-13 12:35:00,
2013-06-13 11:50:00,60.1,58.0,29.55,NNW,330,5.0,14.0,91,0.02,,,1.14,weatherlink.com 1.10,2013-06-13 15:50:00,
2013-06-13 12:05:00,60.1,58.0,29.55,North,6,9.0,19.0,91,0.02,,,1.14,weatherlink.com 1.10,2013-06-13 16:05:00,
2013-06-13 12:22:00,59.6,57.0,29.56,NNW,338,7.0,16.0,91,0.00,,,1.14,weatherlink.com 1.10,2013-06-13 16:22:00,
2013-06-13 12:36:00,58.7,56.0,29.57,ENE,57,7.0,16.0,91,0.00,,,1.14,weatherlink.com 1.10,2013-06-13 16:36:00,
2013-06-13 12:52:00,58.0,55.0,29.58,NW,325,12.0,13.0,91,0.01,,,1.15,weatherlink.com 1.10,2013-06-13 16:52:00,
2013-06-13 13:07:00,57.7,55.0,29.58,NNW,341,6.0,14.0,91,0.01,,,1.15,weatherlink.com 1.10,2013-06-13 17:07:00,
2013-06-13 13:21:00,57.5,55.0,29.58,South,190,8.0,20.0,91,0.01,,,1.15,weatherlink.com 1.10,2013-06-13 17:21:00,
2013-06-13 13:37:00,57.3,55.0,29.59,North,354,8.0,12.0,91,0.01,,,1.15,weatherlink.com 1.10,2013-06-13 17:37:00,
2013-06-13 14:07:00,57.5,55.0,29.60,NNE,23,6.0,18.0,91,0.00,,,1.15,weatherlink.com 1.10,2013-06-13 18:07:00,
2013-06-13 14:22:00,57.8,55.0,29.61,NNW,343,4.0,17.0,91,0.00,,,1.15,weatherlink.com 1.10,2013-06-13 18:22:00,
2013-06-13 14:36:00,57.9,55.0,29.62,NW,325,9.0,17.0,91,0.00,,,1.15,weatherlink.com 1.10,2013-06-13 18:36:00,
2013-06-13 14:52:00,58.2,56.0,29.63,SE,139,2.0,21.0,91,0.00,,,1.15,weatherlink.com 1.10,2013-06-13 18:52:00,
2013-06-13 15:07:00,58.5,56.0,29.65,NNE,15,9.0,18.0,91,0.00,,,1.15,weatherlink.com 1.10,2013-06-13 19:07:00,
2013-06-13 15:21:00,59.4,57.0,29.66,ENE,68,13.0,16.0,90,0.00,,,1.15,weatherlink.com 1.10,2013-06-13 19:21:00,
2013-06-13 15:37:00,59.3,56.0,29.68,NW,309,7.0,23.0,88,0.00,,,1.15,weatherlink.com 1.10,2013-06-13 19:37:00,
2013-06-13 15:52:00,59.5,56.0,29.69,North,11,5.0,16.0,87,0.00,,,1.15,weatherlink.com 1.10,2013-06-13 19:52:00,
2013-06-13 16:06:00,59.9,56.0,29.70,North,6,4.0,17.0,86,0.00,,,1.15,weatherlink.com 1.10,2013-06-13 20:06:00,
2013-06-13 16:22:00,60.7,56.0,29.70,NNW,347,6.0,15.0,84,0.00,,,1.15,weatherlink.com 1.10,2013-06-13 20:22:00,
2013-06-13 16:37:00,61.7,56.0,29.69,NNE,25,11.0,19.0,82,0.00,,,1.15,weatherlink.com 1.10,2013-06-13 20:37:00,
2013-06-13 16:52:00,61.3,56.0,29.70,NE,43,4.0,19.0,82,0.00,,,1.15,weatherlink.com 1.10,2013-06-13 20:52:00,
2013-06-13 17:07:00,61.8,56.0,29.70,ENE,64,4.0,15.0,82,0.00,,,1.15,weatherlink.com 1.10,2013-06-13 21:07:00,
2013-06-13 17:22:00,62.4,56.0,29.70,NE,53,7.0,17.0,80,0.00,,,1.15,weatherlink.com 1.10,2013-06-13 21:22:00,
2013-06-13 17:38:00,62.6,56.0,29.70,NNE,12,5.0,14.0,79,0.00,,,1.15,weatherlink.com 1.10,2013-06-13 21:38:00,
2013-06-13 17:52:00,62.7,56.0,29.71,ENE,64,7.0,14.0,79,0.00,,,1.15,weatherlink.com 1.10,2013-06-13 21:52:00,
2013-06-13 18:06:00,63.2,56.0,29.71,NE,47,8.0,14.0,78,0.00,,,1.15,weatherlink.com 1.10,2013-06-13 22:06:00,
2013-06-13 18:22:00,64.5,57.0,29.72,NW,323,4.0,10.0,76,0.00,,,1.15,weatherlink.com 1.10,2013-06-13 22:22:00,
2013-06-13 18:37:00,64.5,56.0,29.72,NNE,12,5.0,11.0,75,0.00,,,1.15,weatherlink.com 1.10,2013-06-13 22:37:00,
2013-06-13 18:52:00,64.7,56.0,29.72,NNE,18,4.0,8.0,74,0.00,,,1.15,weatherlink.com 1.10,2013-06-13 22:52:00,
2013-06-13 19:07:00,64.9,56.0,29.73,NE,34,2.0,8.0,74,0.00,,,1.15,weatherlink.com 1.10,2013-06-13 23:07:00,
2013-06-13 19:22:00,65.2,56.0,29.74,NNE,32,10.0,10.0,72,0.00,,,1.15,weatherlink.com 1.10,2013-06-13 23:22:00,
2013-06-13 19:37:00,64.9,56.0,29.75,ENE,63,6.0,8.0,72,0.00,,,1.15,weatherlink.com 1.10,2013-06-13 23:37:00,
2013-06-13 19:52:00,64.3,55.0,29.75,ENE,70,7.0,7.0,73,0.00,,,1.15,weatherlink.com 1.10,2013-06-13 23:52:00,
2013-06-13 20:07:00,63.2,55.0,29.76,NNE,23,3.0,5.0,74,0.00,,,1.15,weatherlink.com 1.10,2013-06-14 00:07:00,
2013-06-13 20:22:00,62.5,55.0,29.77,NNE,25,2.0,5.0,75,0.00,,,1.15,weatherlink.com 1.10,2013-06-14 00:22:00,
2013-06-13 20:37:00,61.9,55.0,29.77,NNE,16,0.0,3.0,77,0.00,,,1.15,weatherlink.com 1.10,2013-06-14 00:37:00,
2013-06-13 20:52:00,61.7,55.0,29.78,NW,316,0.0,2.0,78,0.00,,,1.15,weatherlink.com 1.10,2013-06-14 00:52:00,
2013-06-13 21:07:00,61.2,55.0,29.78,NNW,333,1.0,4.0,80,0.00,,,1.15,weatherlink.com 1.10,2013-06-14 01:07:00,
2013-06-13 21:22:00,61.1,55.0,29.79,North,10,1.0,4.0,80,0.00,,,1.15,weatherlink.com 1.10,2013-06-14 01:22:00,
2013-06-13 21:37:00,60.9,55.0,29.79,NNW,346,1.0,2.0,81,0.00,,,1.15,weatherlink.com 1.10,2013-06-14 01:37:00,
2013-06-13 21:52:00,60.9,55.0,29.80,NNW,336,2.0,3.0,81,0.00,,,1.15,weatherlink.com 1.10,2013-06-14 01:52:00,
2013-06-13 22:07:00,60.8,55.0,29.79,North,349,4.0,6.0,81,0.00,,,1.15,weatherlink.com 1.10,2013-06-14 02:07:00,
2013-06-13 22:22:00,60.3,55.0,29.80,NNE,32,2.0,5.0,83,0.00,,,1.15,weatherlink.com 1.10,2013-06-14 02:22:00,
2013-06-13 22:37:00,59.9,55.0,29.80,NNW,347,2.0,4.0,83,0.00,,,1.15,weatherlink.com 1.10,2013-06-14 02:37:00,
2013-06-13 22:52:00,59.4,55.0,29.80,NNW,343,0.0,3.0,85,0.00,,,1.15,weatherlink.com 1.10,2013-06-14 02:52:00,
2013-06-13 23:07:00,59.1,55.0,29.79,NNE,29,0.0,2.0,85,0.00,,,1.15,weatherlink.com 1.10,2013-06-14 03:07:00,
2013-06-13 23:22:00,58.9,55.0,29.80,WSW,253,0.0,0.0,86,0.00,,,1.15,weatherlink.com 1.10,2013-06-14 03:22:00,
2013-06-13 23:37:00,58.7,55.0,29.79,WSW,253,0.0,0.0,86,0.00,,,1.15,weatherlink.com 1.10,2013-06-14 03:37:00,
2013-06-13 23:52:00,58.5,55.0,29.79,WNW,296,1.0,1.0,87,0.00,,,1.15,weatherlink.com 1.10,2013-06-14 03:52:00,